Time;durP1;ratioP1;P1;durP2;ratioP2;P2;SDS_P1;SDS_P2;PMS_P1;PMS_P2;Temp;Humidity;BMP_temperature;BMP_pressure;BME280_temperature;BME280_humidity;BME280_pressure;Samples;Min_cycle;Max_cycle;Signal;HPM_P1;HPM_P2
2021/12/31 00:00:15;;;;;;;11.02;3.45;;;13.40;99.90;;;;;;5023069;28;20045;-78
2021/12/31 00:02:41;;;;;;;10.55;4.28;;;13.40;99.90;;;;;;5040563;28;20140;-78
2021/12/31 00:05:08;;;;;;;4.35;2.45;;;13.40;99.90;;;;;;5040225;28;20155;-78
2021/12/31 00:07:33;;;;;;;5.75;3.25;;;13.40;99.90;;;;;;5022645;28;20055;-78
2021/12/31 00:10:00;;;;;;;7.13;2.70;;;13.40;99.90;;;;;;5040622;28;20044;-77
2021/12/31 00:12:30;;;;;;;6.93;2.90;;;13.40;99.90;;;;;;5040570;28;20048;-78
2021/12/31 00:14:56;;;;;;;8.35;2.78;;;13.40;99.90;;;;;;5023178;28;20078;-78
2021/12/31 00:17:22;;;;;;;10.93;3.17;;;13.30;99.90;;;;;;5041016;28;20087;-77
2021/12/31 00:19:49;;;;;;;6.88;3.42;;;13.30;99.90;;;;;;5022518;28;20159;-77
2021/12/31 00:24:46;;;;;;;8.93;4.15;;;13.30;99.90;;;;;;5041529;28;20049;-77
2021/12/31 00:27:12;;;;;;;10.32;3.00;;;13.30;99.90;;;;;;5040519;28;20076;-76
2021/12/31 00:29:39;;;;;;;8.75;2.85;;;13.30;99.90;;;;;;5022712;28;20136;-77
2021/12/31 00:32:04;;;;;;;7.30;2.88;;;13.30;99.90;;;;;;5022761;28;20597;-77
2021/12/31 00:34:30;;;;;;;7.68;2.95;;;13.30;99.90;;;;;;5021865;28;20053;-76
2021/12/31 00:36:55;;;;;;;9.88;3.17;;;13.30;99.90;;;;;;5040803;28;20053;-77
2021/12/31 00:39:21;;;;;;;12.52;3.75;;;13.30;99.90;;;;;;5039912;28;20062;-76
2021/12/31 00:41:47;;;;;;;7.30;2.78;;;13.30;99.90;;;;;;5039802;28;20052;-76
2021/12/31 00:44:13;;;;;;;9.13;3.10;;;13.20;99.90;;;;;;5022267;28;20056;-77
2021/12/31 00:46:39;;;;;;;5.18;2.72;;;13.30;99.90;;;;;;5021347;28;20052;-77
2021/12/31 00:49:05;;;;;;;6.78;3.17;;;13.30;99.90;;;;;;5022311;28;20143;-76
2021/12/31 00:51:31;;;;;;;6.90;3.35;;;13.20;99.90;;;;;;5022577;28;20381;-77
2021/12/31 00:53:56;;;;;;;4.72;2.20;;;13.20;99.90;;;;;;5039992;28;20059;-77
2021/12/31 00:56:22;;;;;;;6.28;3.80;;;13.20;99.90;;;;;;5022474;28;20056;-76
2021/12/31 00:58:48;;;;;;;11.27;3.25;;;13.20;99.90;;;;;;5040770;28;20074;-77
2021/12/31 01:01:19;;;;;;;5.47;2.83;;;13.20;99.90;;;;;;5018864;28;20110;-77
2021/12/31 01:03:45;;;;;;;10.35;4.03;;;13.10;99.90;;;;;;5021246;28;20483;-77
2021/12/31 01:06:10;;;;;;;11.18;4.00;;;13.10;99.90;;;;;;5038724;28;20053;-77
2021/12/31 01:08:36;;;;;;;6.70;3.40;;;13.10;99.90;;;;;;5037611;28;20065;-77
2021/12/31 01:11:03;;;;;;;7.15;3.50;;;13.10;99.90;;;;;;5037605;28;20748;-77
2021/12/31 01:14:22;;;;;;;6.80;3.70;;;13.10;99.90;;;;;;5039248;28;20059;-77
2021/12/31 01:16:16;;;;;;;18.90;3.42;;;13.10;99.90;;;;;;5027544;28;20905;-77
2021/12/31 01:21:17;;;;;;;13.30;3.67;;;13.10;99.90;;;;;;5015162;28;20063;-76
2021/12/31 01:23:42;;;;;;;13.35;3.22;;;13.10;99.90;;;;;;5021183;28;20155;-76
2021/12/31 01:26:08;;;;;;;9.95;4.10;;;13.10;99.90;;;;;;5021213;28;20072;-76
2021/12/31 01:28:35;;;;;;;10.32;4.18;;;13.00;99.90;;;;;;5039294;28;20188;-76
2021/12/31 01:31:01;;;;;;;8.80;3.53;;;13.10;99.90;;;;;;5038954;28;20140;-77
2021/12/31 01:33:26;;;;;;;14.25;3.47;;;13.10;99.90;;;;;;5039628;28;20056;-76
2021/12/31 01:35:52;;;;;;;10.13;3.42;;;13.10;99.90;;;;;;5020755;28;20041;-77
2021/12/31 01:38:17;;;;;;;11.90;3.45;;;13.00;99.90;;;;;;5039164;28;20053;-77
2021/12/31 01:40:43;;;;;;;10.05;4.65;;;13.10;99.90;;;;;;5020680;28;20067;-76
2021/12/31 01:43:11;;;;;;;13.65;3.88;;;13.00;99.90;;;;;;5038672;28;20446;-76
2021/12/31 01:45:43;;;;;;;10.27;5.30;;;13.00;99.90;;;;;;5021164;28;20147;-76
2021/12/31 01:48:22;;;;;;;8.30;3.63;;;13.00;99.90;;;;;;5021046;28;20053;-76
2021/12/31 01:50:49;;;;;;;6.78;3.80;;;13.00;99.90;;;;;;5037488;28;20074;-76
2021/12/31 01:53:15;;;;;;;17.67;5.50;;;13.00;99.90;;;;;;5015074;28;20131;-76
2021/12/31 01:55:41;;;;;;;12.95;3.90;;;13.00;99.90;;;;;;5038329;28;20056;-76
2021/12/31 01:58:07;;;;;;;13.60;3.47;;;13.00;99.90;;;;;;5038411;28;20632;-76
2021/12/31 02:00:34;;;;;;;8.98;3.63;;;13.00;99.90;;;;;;5020576;28;20506;-76
2021/12/31 02:03:01;;;;;;;9.30;3.80;;;13.00;99.90;;;;;;5039139;28;20084;-76
2021/12/31 02:05:27;;;;;;;13.07;4.32;;;13.00;99.90;;;;;;5020150;28;20151;-75
2021/12/31 02:07:53;;;;;;;13.18;4.20;;;13.00;99.90;;;;;;5038497;28;20049;-76
2021/12/31 02:10:19;;;;;;;11.07;4.22;;;12.90;99.90;;;;;;5021254;28;20386;-75
2021/12/31 02:12:46;;;;;;;9.70;3.33;;;12.90;99.90;;;;;;5038318;28;20053;-75
2021/12/31 02:15:14;;;;;;;11.00;3.95;;;12.90;99.90;;;;;;5021074;28;20785;-75
2021/12/31 02:17:39;;;;;;;8.88;3.28;;;13.00;99.90;;;;;;5024218;28;20062;-75
2021/12/31 02:20:07;;;;;;;10.07;4.53;;;13.00;99.90;;;;;;5042487;28;20045;-75
2021/12/31 02:22:38;;;;;;;7.30;4.05;;;13.00;99.90;;;;;;5041855;28;20044;-75
2021/12/31 02:25:06;;;;;;;7.70;2.85;;;13.00;99.90;;;;;;5024509;28;20051;-74
2021/12/31 02:27:37;;;;;;;5.70;2.85;;;13.00;99.90;;;;;;5024591;28;20053;-75
2021/12/31 02:30:04;;;;;;;9.13;3.75;;;13.00;99.90;;;;;;5024711;28;20060;-75
2021/12/31 02:32:30;;;;;;;6.65;4.03;;;13.00;99.90;;;;;;5024200;28;20327;-75
2021/12/31 02:34:55;;;;;;;7.38;3.00;;;13.00;99.90;;;;;;5024814;28;20842;-75
2021/12/31 02:37:21;;;;;;;4.28;2.67;;;13.00;99.90;;;;;;5024781;28;20466;-74
2021/12/31 02:39:47;;;;;;;9.23;3.30;;;13.10;99.90;;;;;;5037993;28;20061;-74
2021/12/31 02:42:12;;;;;;;8.05;4.20;;;13.10;99.90;;;;;;5025481;28;20073;-74
2021/12/31 02:44:39;;;;;;;7.70;2.92;;;13.10;99.90;;;;;;5025279;28;20051;-75
2021/12/31 02:47:06;;;;;;;7.00;2.97;;;13.10;99.90;;;;;;5023894;28;20110;-74
2021/12/31 02:49:36;;;;;;;4.03;2.78;;;13.10;99.90;;;;;;5024046;28;20134;-75
2021/12/31 02:52:10;;;;;;;3.92;2.78;;;13.20;99.90;;;;;;5024437;28;20051;-75
2021/12/31 02:54:39;;;;;;;6.10;3.58;;;13.20;99.90;;;;;;5023634;28;20132;-75
2021/12/31 02:57:06;;;;;;;4.72;2.80;;;13.20;99.90;;;;;;5020813;28;20088;-74
2021/12/31 02:59:33;;;;;;;5.07;2.80;;;13.20;99.90;;;;;;5021616;28;20136;-74
2021/12/31 03:01:59;;;;;;;9.10;2.78;;;13.30;99.90;;;;;;5019951;28;20698;-75
2021/12/31 03:04:26;;;;;;;5.75;2.50;;;13.30;99.90;;;;;;5020579;28;20037;-75
2021/12/31 03:06:53;;;;;;;7.82;2.63;;;13.30;99.90;;;;;;5038944;28;20147;-75
2021/12/31 03:09:23;;;;;;;4.38;2.55;;;13.30;99.90;;;;;;5018681;28;20056;-75
2021/12/31 03:11:52;;;;;;;6.78;3.40;;;13.40;99.90;;;;;;5020739;28;20059;-75
2021/12/31 03:14:20;;;;;;;6.07;3.13;;;13.40;99.90;;;;;;5038624;28;20045;-75
2021/12/31 03:16:47;;;;;;;5.47;2.55;;;13.50;99.90;;;;;;5021693;28;20045;-75
2021/12/31 03:19:13;;;;;;;6.28;3.03;;;13.40;99.90;;;;;;5038690;28;20582;-75
2021/12/31 03:21:39;;;;;;;5.95;2.78;;;13.50;99.90;;;;;;5020097;28;20133;-75
2021/12/31 03:24:05;;;;;;;3.30;2.60;;;13.50;99.90;;;;;;5020739;28;20796;-75
2021/12/31 03:26:30;;;;;;;8.68;2.40;;;13.50;99.90;;;;;;5039300;28;20045;-75
2021/12/31 03:28:56;;;;;;;5.32;3.20;;;13.30;99.90;;;;;;5037766;28;20479;-75
2021/12/31 03:31:21;;;;;;;5.15;2.58;;;13.50;99.90;;;;;;5038579;28;20069;-75
2021/12/31 03:33:47;;;;;;;6.75;2.28;;;13.50;99.90;;;;;;5037074;28;20045;-75
2021/12/31 03:36:13;;;;;;;5.10;2.60;;;13.50;99.90;;;;;;5019798;28;20079;-75
2021/12/31 03:38:38;;;;;;;5.03;2.22;;;13.50;99.90;;;;;;5021028;28;20580;-74
2021/12/31 03:41:04;;;;;;;9.15;2.40;;;13.50;99.90;;;;;;5020511;28;20072;-75
2021/12/31 03:43:29;;;;;;;7.43;2.85;;;13.60;99.90;;;;;;5038381;28;20252;-75
2021/12/31 03:45:55;;;;;;;7.13;3.83;;;13.50;99.90;;;;;;5038679;28;20048;-75
2021/12/31 03:48:21;;;;;;;4.28;2.42;;;13.60;99.90;;;;;;5037981;28;20231;-75
2021/12/31 03:50:47;;;;;;;9.27;2.55;;;13.50;99.90;;;;;;5019489;28;20709;-75
2021/12/31 03:53:14;;;;;;;7.30;2.60;;;13.50;99.90;;;;;;5020605;28;20049;-75
2021/12/31 03:55:40;;;;;;;11.85;2.72;;;13.50;99.90;;;;;;5038828;28;20049;-76
2021/12/31 03:58:06;;;;;;;3.63;2.30;;;13.50;99.90;;;;;;5020382;28;20089;-75
2021/12/31 04:00:31;;;;;;;6.53;2.63;;;13.50;99.90;;;;;;5017448;28;20099;-75
2021/12/31 04:02:57;;;;;;;2.47;2.13;;;13.50;99.90;;;;;;5018896;28;20057;-74
2021/12/31 04:05:25;;;;;;;5.32;2.25;;;13.40;99.90;;;;;;5018268;28;20048;-76
2021/12/31 04:07:51;;;;;;;5.13;2.20;;;13.40;99.90;;;;;;5036498;28;20791;-75
2021/12/31 04:10:17;;;;;;;4.75;2.35;;;13.50;99.90;;;;;;5015631;28;20044;-75
2021/12/31 04:12:43;;;;;;;10.68;2.97;;;13.50;99.90;;;;;;5017038;28;20048;-76
2021/12/31 04:15:09;;;;;;;4.32;2.47;;;13.40;99.90;;;;;;5036521;28;20049;-75
2021/12/31 04:17:34;;;;;;;2.60;2.13;;;13.50;99.90;;;;;;5037338;28;20926;-76
2021/12/31 04:20:00;;;;;;;2.42;2.13;;;13.50;99.90;;;;;;5036418;28;20056;-76
2021/12/31 04:22:28;;;;;;;11.65;2.50;;;13.50;99.90;;;;;;5017992;28;20053;-76
2021/12/31 04:24:54;;;;;;;4.22;2.25;;;13.50;99.90;;;;;;5036250;28;20056;-76
2021/12/31 04:27:21;;;;;;;6.47;2.17;;;13.50;99.90;;;;;;5017687;28;20096;-75
2021/12/31 04:29:51;;;;;;;6.25;2.28;;;13.50;99.90;;;;;;5017853;28;20572;-76
2021/12/31 04:32:23;;;;;;;3.80;2.03;;;13.50;99.90;;;;;;5015676;28;20129;-76
2021/12/31 04:34:49;;;;;;;3.15;2.85;;;13.60;99.90;;;;;;5018133;28;20053;-76
2021/12/31 04:37:15;;;;;;;3.38;1.98;;;13.60;99.90;;;;;;5018097;28;20041;-76
2021/12/31 04:39:41;;;;;;;3.67;2.22;;;13.60;99.90;;;;;;5017057;28;20148;-76
2021/12/31 04:42:06;;;;;;;3.10;1.85;;;13.60;99.90;;;;;;5018713;28;20048;-76
2021/12/31 04:44:32;;;;;;;5.85;3.15;;;13.60;99.90;;;;;;5036982;28;20095;-76
2021/12/31 04:46:57;;;;;;;4.60;2.50;;;13.60;99.90;;;;;;5037461;28;20444;-77
2021/12/31 04:49:23;;;;;;;3.33;3.03;;;13.60;99.90;;;;;;5039938;28;20053;-76
2021/12/31 04:51:49;;;;;;;2.85;1.85;;;13.60;99.90;;;;;;5040110;28;20056;-75
2021/12/31 04:54:16;;;;;;;2.10;1.90;;;13.60;99.90;;;;;;5040047;28;20063;-76
2021/12/31 04:56:43;;;;;;;4.28;2.38;;;13.70;99.90;;;;;;5040628;28;20063;-76
2021/12/31 04:59:09;;;;;;;4.47;2.75;;;13.60;99.90;;;;;;5040494;28;20044;-76
2021/12/31 05:01:35;;;;;;;3.95;3.45;;;13.60;99.90;;;;;;5021249;28;20059;-76
2021/12/31 05:04:01;;;;;;;4.97;1.92;;;13.60;99.90;;;;;;5022148;28;20044;-76
2021/12/31 05:06:26;;;;;;;3.28;2.13;;;13.60;99.90;;;;;;5021765;28;20198;-76
2021/12/31 05:08:53;;;;;;;1.95;1.80;;;13.60;99.90;;;;;;5039178;28;20077;-76
2021/12/31 05:11:19;;;;;;;2.30;2.10;;;13.50;99.90;;;;;;5021461;28;20045;-77
2021/12/31 05:13:44;;;;;;;2.25;2.03;;;13.60;99.90;;;;;;5039854;28;20083;-76
2021/12/31 05:16:10;;;;;;;3.22;2.40;;;13.60;99.90;;;;;;5021302;28;20792;-76
2021/12/31 05:18:35;;;;;;;3.55;2.78;;;13.60;99.90;;;;;;5039467;28;20120;-78
2021/12/31 05:21:01;;;;;;;5.10;2.90;;;13.60;99.90;;;;;;5039531;28;20522;-78
2021/12/31 05:23:26;;;;;;;6.00;3.20;;;13.60;99.90;;;;;;5021805;28;20514;-78
2021/12/31 05:25:52;;;;;;;3.90;2.72;;;13.60;99.90;;;;;;5021490;28;20164;-78
2021/12/31 05:28:18;;;;;;;6.22;3.63;;;13.60;99.90;;;;;;5038637;28;20159;-78
2021/12/31 05:30:43;;;;;;;5.28;3.45;;;13.60;99.90;;;;;;5039174;28;20041;-78
2021/12/31 05:33:09;;;;;;;5.88;3.28;;;13.60;99.90;;;;;;5021835;28;20841;-78
2021/12/31 05:35:35;;;;;;;6.00;3.30;;;13.60;99.90;;;;;;5039042;28;20098;-78
2021/12/31 05:38:00;;;;;;;4.57;3.28;;;13.60;99.90;;;;;;5039664;28;20095;-78
2021/12/31 05:40:26;;;;;;;4.00;3.08;;;13.60;99.90;;;;;;5021264;28;20573;-78
2021/12/31 05:42:52;;;;;;;5.05;2.67;;;13.60;99.90;;;;;;5020733;28;20580;-78
2021/12/31 05:45:18;;;;;;;5.07;3.75;;;14.20;99.90;;;;;;5020936;28;20052;-78
2021/12/31 05:47:43;;;;;;;5.05;3.35;;;13.60;99.90;;;;;;5021027;28;20173;-78
2021/12/31 05:50:27;;;;;;;4.15;3.70;;;13.60;99.90;;;;;;5020601;28;20550;-77
2021/12/31 05:52:57;;;;;;;4.70;2.85;;;13.60;99.90;;;;;;5021497;28;20130;-78
2021/12/31 05:55:23;;;;;;;3.67;2.70;;;13.60;99.90;;;;;;5021252;28;20130;-78
2021/12/31 05:57:48;;;;;;;6.90;2.75;;;13.60;99.90;;;;;;5038766;28;20187;-78
2021/12/31 06:00:14;;;;;;;6.57;2.78;;;13.60;99.90;;;;;;5021023;28;20041;-78
2021/12/31 06:02:40;;;;;;;6.72;2.38;;;13.60;99.90;;;;;;5021585;28;20127;-77
2021/12/31 06:05:06;;;;;;;6.75;2.78;;;13.80;99.90;;;;;;5038609;28;20908;-77
2021/12/31 06:07:31;;;;;;;2.65;2.00;;;13.60;99.90;;;;;;5039071;28;20057;-77
2021/12/31 06:09:57;;;;;;;3.35;2.65;;;13.60;99.90;;;;;;5021004;28;20040;-78
2021/12/31 06:12:25;;;;;;;6.43;2.90;;;13.70;99.90;;;;;;5038431;28;20045;-78
2021/12/31 06:14:54;;;;;;;4.90;2.25;;;13.70;99.90;;;;;;5020884;28;20045;-78
2021/12/31 06:17:24;;;;;;;4.82;2.20;;;13.70;99.90;;;;;;5021047;28;20109;-78
2021/12/31 06:19:50;;;;;;;2.92;2.70;;;13.70;99.90;;;;;;5021209;28;20096;-78
2021/12/31 06:22:16;;;;;;;3.30;2.90;;;13.70;99.90;;;;;;5020940;28;20060;-78
2021/12/31 06:24:42;;;;;;;5.30;2.78;;;13.70;99.90;;;;;;5020102;28;20049;-78
2021/12/31 06:27:08;;;;;;;3.10;2.38;;;13.70;99.90;;;;;;5038309;28;20107;-78
2021/12/31 06:29:34;;;;;;;4.10;2.47;;;13.70;99.90;;;;;;5039099;28;20048;-77
2021/12/31 06:31:59;;;;;;;4.63;2.30;;;13.70;99.90;;;;;;5038147;28;20571;-78
2021/12/31 06:34:25;;;;;;;3.50;1.83;;;13.60;99.90;;;;;;5021253;28;20041;-78
2021/12/31 06:36:50;;;;;;;4.57;2.60;;;13.70;99.90;;;;;;5021208;28;20056;-78
2021/12/31 06:39:16;;;;;;;3.53;3.13;;;13.70;99.90;;;;;;5037964;28;20412;-78
2021/12/31 06:41:42;;;;;;;3.67;2.17;;;13.70;99.90;;;;;;5038613;28;20088;-79
2021/12/31 06:44:09;;;;;;;3.67;2.58;;;13.70;99.90;;;;;;5020356;28;20045;-78
2021/12/31 06:46:34;;;;;;;4.47;2.72;;;13.60;99.90;;;;;;5038057;28;20126;-78
2021/12/31 06:49:00;;;;;;;3.90;1.90;;;13.60;99.90;;;;;;5020403;28;20049;-78
2021/12/31 06:51:26;;;;;;;5.13;2.03;;;13.60;99.90;;;;;;5038478;28;20099;-79
2021/12/31 06:53:51;;;;;;;3.85;2.35;;;13.60;99.90;;;;;;5020153;28;20134;-78
2021/12/31 06:56:17;;;;;;;4.00;2.00;;;13.60;99.90;;;;;;5038560;28;20040;-79
2021/12/31 06:58:44;;;;;;;3.67;1.83;;;13.50;99.90;;;;;;5020387;28;20057;-79
2021/12/31 07:01:10;;;;;;;3.08;1.80;;;13.60;99.90;;;;;;5038064;28;20063;-79
2021/12/31 07:03:36;;;;;;;5.35;2.30;;;13.50;99.90;;;;;;5041256;28;20791;-79
2021/12/31 07:06:02;;;;;;;3.28;2.00;;;13.60;99.90;;;;;;5024102;28;20045;-79
2021/12/31 07:08:27;;;;;;;2.40;2.00;;;13.50;99.90;;;;;;5041916;28;20084;-79
2021/12/31 07:10:53;;;;;;;2.90;2.05;;;13.60;99.90;;;;;;5041570;28;20119;-79
2021/12/31 07:13:18;;;;;;;5.32;2.15;;;13.60;99.90;;;;;;5023982;28;20699;-78
2021/12/31 07:15:48;;;;;;;4.35;1.90;;;13.60;99.90;;;;;;5041429;28;20079;-79
2021/12/31 07:18:14;;;;;;;7.35;2.20;;;13.50;99.90;;;;;;5023763;28;20415;-79
2021/12/31 07:20:41;;;;;;;1.88;1.52;;;13.50;99.90;;;;;;5022890;28;20057;-79
2021/12/31 07:23:08;;;;;;;2.72;1.73;;;13.50;99.90;;;;;;5041573;28;20063;-79
2021/12/31 07:25:34;;;;;;;5.07;1.90;;;13.50;99.90;;;;;;5041460;28;20106;-79
2021/12/31 07:28:00;;;;;;;3.60;1.73;;;13.50;99.90;;;;;;5022888;28;20064;-79
2021/12/31 07:30:26;;;;;;;3.83;1.83;;;13.40;99.90;;;;;;5023453;28;20499;-79
2021/12/31 07:32:51;;;;;;;4.88;2.17;;;13.40;99.90;;;;;;5042078;28;20044;-78
2021/12/31 07:35:17;;;;;;;2.72;2.08;;;13.40;99.90;;;;;;5041509;28;20106;-79
2021/12/31 07:37:43;;;;;;;3.45;1.90;;;13.40;99.90;;;;;;5024027;28;20048;-79
2021/12/31 07:40:11;;;;;;;2.70;1.65;;;13.40;99.90;;;;;;5023791;28;20065;-78
2021/12/31 07:42:37;;;;;;;2.75;1.80;;;13.40;99.90;;;;;;5022980;28;20056;-79
2021/12/31 07:45:03;;;;;;;4.10;1.85;;;13.30;99.90;;;;;;5039491;28;20048;-79
2021/12/31 07:47:29;;;;;;;2.47;1.92;;;13.30;99.90;;;;;;5020989;28;20045;-79
2021/12/31 07:49:54;;;;;;;4.05;2.08;;;13.20;99.90;;;;;;5037789;28;20052;-78
2021/12/31 07:52:20;;;;;;;2.90;2.67;;;12.70;99.90;;;;;;5020200;28;20660;-78
2021/12/31 07:54:45;;;;;;;6.28;2.25;;;13.20;99.90;;;;;;5019346;28;20051;-79
2021/12/31 07:57:11;;;;;;;2.97;2.67;;;13.20;99.90;;;;;;5037323;28;20049;-78
2021/12/31 07:59:36;;;;;;;2.92;1.88;;;13.10;99.90;;;;;;5020689;28;20040;-79
2021/12/31 08:02:02;;;;;;;3.38;2.00;;;13.10;99.90;;;;;;5038567;28;20052;-79
2021/12/31 08:04:28;;;;;;;2.50;2.30;;;13.10;99.90;;;;;;5013589;28;20698;-78
2021/12/31 08:06:53;;;;;;;2.80;2.22;;;13.20;99.90;;;;;;5020616;28;20080;-79
2021/12/31 08:09:19;;;;;;;2.88;1.90;;;13.20;99.90;;;;;;5020128;28;20102;-78
2021/12/31 08:11:44;;;;;;;3.00;2.22;;;13.20;99.90;;;;;;5018604;28;20442;-79
2021/12/31 08:14:10;;;;;;;2.63;2.42;;;14.30;99.90;;;;;;5018830;28;20754;-79
2021/12/31 08:16:36;;;;;;;8.45;2.60;;;13.20;99.90;;;;;;5037132;28;20053;-79
2021/12/31 08:19:01;;;;;;;2.92;2.60;;;13.30;99.90;;;;;;5017942;28;20099;-79
2021/12/31 08:21:27;;;;;;;4.22;2.95;;;13.30;99.90;;;;;;5017606;28;20904;-79
2021/12/31 08:23:52;;;;;;;2.90;2.38;;;13.40;99.90;;;;;;5016381;28;20396;-79
2021/12/31 08:26:18;;;;;;;3.22;2.30;;;13.40;99.90;;;;;;5017303;28;20053;-78
2021/12/31 08:28:44;;;;;;;2.72;2.28;;;13.40;99.90;;;;;;5019351;28;20049;-78
2021/12/31 08:31:10;;;;;;;2.60;1.80;;;13.40;99.90;;;;;;5036690;28;20064;-78
2021/12/31 08:33:35;;;;;;;2.90;2.30;;;13.40;99.90;;;;;;5018956;28;20128;-78
2021/12/31 08:36:01;;;;;;;3.50;2.67;;;13.40;99.90;;;;;;5018534;28;20080;-78
2021/12/31 08:38:27;;;;;;;3.65;2.45;;;13.40;99.90;;;;;;5036548;28;20087;-78
2021/12/31 08:40:54;;;;;;;2.05;1.92;;;13.40;99.90;;;;;;5036905;28;20500;-78
2021/12/31 08:43:19;;;;;;;5.57;2.10;;;13.40;99.90;;;;;;5036640;28;20763;-78
2021/12/31 08:45:45;;;;;;;4.30;2.78;;;13.40;99.90;;;;;;5018304;28;20098;-78
2021/12/31 08:48:11;;;;;;;3.47;2.50;;;13.50;99.90;;;;;;5018731;28;20067;-78
2021/12/31 08:50:37;;;;;;;4.47;2.55;;;13.50;99.90;;;;;;5018401;28;20044;-78
2021/12/31 08:53:04;;;;;;;3.92;2.25;;;13.50;99.90;;;;;;5036216;28;20822;-78
2021/12/31 08:55:29;;;;;;;4.60;2.67;;;13.50;99.90;;;;;;5019018;28;20056;-78
2021/12/31 08:57:55;;;;;;;4.55;2.83;;;13.50;99.90;;;;;;5036087;28;20053;-78
2021/12/31 09:00:21;;;;;;;3.33;2.22;;;13.90;99.90;;;;;;5017446;28;20484;-78
2021/12/31 09:02:49;;;;;;;5.65;2.22;;;13.50;99.90;;;;;;5011324;28;20135;-78
2021/12/31 09:05:16;;;;;;;2.80;2.28;;;13.40;99.90;;;;;;5018572;28;20045;-77
2021/12/31 09:07:41;;;;;;;5.95;3.15;;;13.50;99.90;;;;;;5035315;28;20049;-78
2021/12/31 09:10:08;;;;;;;3.30;2.40;;;13.50;99.90;;;;;;5036709;28;20671;-78
2021/12/31 09:12:34;;;;;;;3.85;2.42;;;13.50;99.90;;;;;;5036981;28;20056;-78
2021/12/31 09:15:00;;;;;;;3.95;2.13;;;13.40;99.90;;;;;;5020446;28;20532;-78
2021/12/31 09:17:26;;;;;;;4.50;3.05;;;13.50;99.90;;;;;;5039083;28;20501;-77
2021/12/31 09:19:51;;;;;;;7.57;3.33;;;13.50;99.90;;;;;;5020826;28;20132;-77
2021/12/31 09:22:17;;;;;;;3.85;2.53;;;13.50;99.90;;;;;;5019795;28;20156;-77
2021/12/31 09:24:43;;;;;;;4.10;2.78;;;13.50;99.90;;;;;;5037394;28;20120;-79
2021/12/31 09:27:10;;;;;;;4.57;2.50;;;14.20;99.90;;;;;;5018524;28;20075;-78
2021/12/31 09:29:35;;;;;;;4.15;2.83;;;13.50;99.90;;;;;;5020389;28;20109;-78
2021/12/31 09:32:01;;;;;;;5.65;2.50;;;13.50;99.90;;;;;;5020669;28;20061;-78
2021/12/31 09:34:26;;;;;;;2.63;2.38;;;13.50;99.90;;;;;;5038646;28;20064;-78
2021/12/31 09:36:52;;;;;;;3.78;2.25;;;13.50;99.90;;;;;;5038892;28;20070;-80
2021/12/31 09:39:17;;;;;;;3.47;2.60;;;13.50;99.90;;;;;;5018549;28;20048;-78
2021/12/31 09:41:44;;;;;;;3.13;2.30;;;13.60;99.90;;;;;;5019374;28;20057;-79
2021/12/31 09:44:14;;;;;;;4.20;2.15;;;13.60;99.90;;;;;;5019748;28;20309;-79
2021/12/31 09:46:40;;;;;;;7.55;2.75;;;13.70;99.90;;;;;;5019522;28;20049;-78
2021/12/31 09:49:06;;;;;;;5.43;2.75;;;13.60;99.90;;;;;;5018955;28;20065;-80
2021/12/31 09:51:33;;;;;;;5.55;2.15;;;13.60;99.90;;;;;;5037611;28;20040;-80
2021/12/31 09:53:59;;;;;;;4.97;2.20;;;13.70;99.90;;;;;;5019368;28;20163;-79
2021/12/31 09:56:26;;;;;;;3.10;2.10;;;13.70;99.90;;;;;;5037035;28;20122;-80
2021/12/31 09:58:52;;;;;;;5.53;2.97;;;13.60;99.90;;;;;;5037689;28;20051;-80
2021/12/31 10:01:18;;;;;;;5.28;2.15;;;13.60;99.90;;;;;;5036965;28;20037;-80
2021/12/31 10:03:54;;;;;;;4.47;2.15;;;13.60;99.90;;;;;;5018496;28;20191;-80
2021/12/31 10:06:19;;;;;;;2.45;2.25;;;13.60;99.90;;;;;;5036980;28;20044;-79
2021/12/31 10:08:47;;;;;;;5.13;2.60;;;13.50;99.90;;;;;;5019657;28;20487;-79
2021/12/31 10:11:18;;;;;;;4.50;2.58;;;13.50;99.90;;;;;;5033718;28;20102;-79
2021/12/31 10:13:47;;;;;;;4.72;2.47;;;13.50;99.90;;;;;;5037456;28;20778;-79
2021/12/31 10:16:32;;;;;;;4.53;2.47;;;13.40;99.90;;;;;;5019456;28;20049;-79
2021/12/31 10:19:18;;;;;;;3.40;3.13;;;13.50;99.90;;;;;;5019121;28;20060;-79
2021/12/31 10:21:48;;;;;;;4.82;2.88;;;13.50;99.90;;;;;;5018485;28;20404;-80
2021/12/31 10:24:38;;;;;;;2.40;2.20;;;13.40;99.90;;;;;;5013871;28;20048;-78
2021/12/31 10:27:13;;;;;;;3.58;2.50;;;13.30;99.90;;;;;;5018036;28;20084;-78
2021/12/31 10:30:04;;;;;;;3.75;3.38;;;13.20;99.90;;;;;;5017271;28;20055;-76
2021/12/31 10:32:32;;;;;;;3.58;3.28;;;13.20;99.90;;;;;;5018019;28;20047;-75
2021/12/31 10:35:43;;;;;;;2.92;2.63;;;13.10;99.90;;;;;;5019271;28;20839;-76
2021/12/31 10:38:12;;;;;;;4.18;3.13;;;13.00;99.90;;;;;;4990485;28;20647;-70
2021/12/31 10:40:43;;;;;;;4.35;2.65;;;13.00;99.90;;;;;;5041296;28;20102;-71
2021/12/31 10:43:16;;;;;;;2.90;2.17;;;13.00;99.90;;;;;;5041898;28;20607;-72
2021/12/31 10:46:03;;;;;;;3.88;3.10;;;13.00;99.90;;;;;;5023354;28;20833;-79
2021/12/31 10:48:40;;;;;;;6.95;3.55;;;13.90;99.90;;;;;;5040903;28;20056;-78
2021/12/31 10:51:06;;;;;;;4.43;3.00;;;13.00;99.90;;;;;;5018991;28;20049;-78
2021/12/31 10:53:34;;;;;;;11.07;3.35;;;13.00;99.90;;;;;;5022252;28;20407;-79
2021/12/31 10:56:18;;;;;;;2.63;2.42;;;13.00;99.90;;;;;;5037694;28;20090;-78
2021/12/31 10:59:05;;;;;;;3.97;2.10;;;13.00;99.90;;;;;;5021242;28;20045;-77
2021/12/31 11:01:31;;;;;;;7.82;2.88;;;13.00;99.90;;;;;;5020436;28;20103;-77
2021/12/31 11:03:56;;;;;;;2.53;2.33;;;13.00;99.90;;;;;;5023897;28;20144;-78
2021/12/31 11:06:23;;;;;;;3.33;2.97;;;13.00;99.90;;;;;;5038061;28;20103;-79
2021/12/31 11:08:50;;;;;;;3.90;2.75;;;13.00;99.90;;;;;;5040317;28;20049;-78
2021/12/31 11:11:19;;;;;;;2.70;2.50;;;13.00;99.90;;;;;;5023842;28;20053;-78
2021/12/31 11:13:45;;;;;;;4.25;3.20;;;13.00;99.90;;;;;;5023169;28;20059;-78
2021/12/31 11:16:13;;;;;;;3.20;2.65;;;13.00;99.90;;;;;;5041634;28;20045;-77
2021/12/31 11:18:40;;;;;;;4.38;2.85;;;13.00;99.90;;;;;;5041199;28;20048;-75
2021/12/31 11:21:08;;;;;;;5.97;3.63;;;13.00;99.90;;;;;;5022940;28;20134;-72
2021/12/31 11:23:34;;;;;;;3.95;2.70;;;13.00;99.90;;;;;;5040137;28;20048;-83
2021/12/31 11:26:04;;;;;;;3.88;2.85;;;12.90;99.90;;;;;;5022511;28;20679;-81
2021/12/31 11:28:35;;;;;;;3.03;2.55;;;12.90;99.90;;;;;;5021817;28;20245;-81
2021/12/31 11:31:22;;;;;;;3.95;2.92;;;12.80;99.90;;;;;;5023037;28;20834;-83
2021/12/31 11:33:56;;;;;;;4.18;2.78;;;12.80;99.90;;;;;;5018112;28;20189;-82
2021/12/31 11:36:45;;;;;;;3.13;2.80;;;12.70;99.90;;;;;;5020383;28;20056;-85
2021/12/31 11:39:28;;;;;;;4.72;3.58;;;12.70;99.90;;;;;;5036309;28;20850;-81
2021/12/31 11:41:57;;;;;;;4.35;3.05;;;12.60;99.90;;;;;;5015232;28;20041;-84
2021/12/31 11:44:25;;;;;;;5.15;3.67;;;12.60;99.90;;;;;;5018243;28;20804;-79
2021/12/31 11:47:06;;;;;;;4.13;3.35;;;12.60;99.90;;;;;;5017890;28;20049;-82
2021/12/31 11:49:31;;;;;;;3.22;2.78;;;12.60;99.90;;;;;;5017361;28;20092;-81
2021/12/31 11:51:59;;;;;;;7.03;3.97;;;12.50;99.90;;;;;;5021530;28;20148;-81
2021/12/31 11:54:26;;;;;;;5.30;3.50;;;12.50;99.90;;;;;;5019946;28;20064;-74
2021/12/31 11:56:54;;;;;;;6.10;3.75;;;12.50;99.90;;;;;;5020981;28;20068;-74
2021/12/31 11:59:24;;;;;;;8.68;4.28;;;12.40;99.90;;;;;;4672457;28;10000681;-73
2021/12/31 12:01:52;;;;;;;9.77;4.22;;;12.40;99.90;;;;;;5009971;28;20728;-75
2021/12/31 12:04:26;;;;;;;8.95;3.75;;;12.40;99.90;;;;;;5015935;28;20068;-83
2021/12/31 12:06:59;;;;;;;6.88;3.92;;;12.40;99.90;;;;;;5012911;28;20057;-86
2021/12/31 12:09:37;;;;;;;8.10;4.07;;;12.40;99.90;;;;;;5012110;28;20048;-89
2021/12/31 12:12:08;;;;;;;5.93;3.47;;;12.40;99.90;;;;;;5009419;28;20061;-86
2021/12/31 12:14:52;;;;;;;6.40;3.53;;;12.40;99.90;;;;;;5014460;28;20104;-82
2021/12/31 12:17:43;;;;;;;4.53;3.83;;;12.30;99.90;;;;;;5010954;28;20515;-88
2021/12/31 12:20:13;;;;;;;6.88;3.83;;;12.30;99.90;;;;;;5014217;28;20068;-89
2021/12/31 12:22:50;;;;;;;5.78;3.50;;;12.30;99.90;;;;;;5015845;28;20042;-86
2021/12/31 12:25:18;;;;;;;4.28;3.50;;;12.20;99.90;;;;;;5015973;28;20052;-85
2021/12/31 12:27:47;;;;;;;6.80;3.00;;;12.20;99.90;;;;;;5031407;28;20121;-85
2021/12/31 12:30:14;;;;;;;7.50;3.30;;;12.20;99.90;;;;;;5012981;28;20048;-86
2021/12/31 12:35:26;;;;;;;6.88;4.68;;;12.20;99.90;;;;;;5014325;28;20253;-86
2021/12/31 12:38:02;;;;;;;6.88;4.28;;;12.20;99.90;;;;;;5013560;28;20098;-85
2021/12/31 12:40:58;;;;;;;5.05;2.90;;;12.10;99.90;;;;;;5022285;28;20052;-85
2021/12/31 12:43:27;;;;;;;5.68;4.18;;;12.10;99.90;;;;;;5021953;28;20951;-84
2021/12/31 12:46:02;;;;;;;5.13;3.42;;;12.10;99.90;;;;;;5031606;28;20049;-82
2021/12/31 12:48:35;;;;;;;6.63;4.05;;;12.10;99.90;;;;;;5012432;28;20059;-82
2021/12/31 12:51:03;;;;;;;6.35;4.30;;;12.10;99.90;;;;;;5035168;28;20056;-79
2021/12/31 12:53:29;;;;;;;6.68;3.22;;;12.10;99.90;;;;;;5034038;28;20080;-79
2021/12/31 12:56:12;;;;;;;4.78;3.95;;;12.10;99.90;;;;;;5016486;28;20783;-80